Flight Track Log - Related Links

Times and Time Zones

All times are in EDT time to prevent confusion due to time zone crossing. See the N418DR flight status page for this flight to view local times or setup timezone preferences in your user account.

Time Position Orientation Groundspeed Altitude Reporting Facility
EDT Latitude Longitude Course Direction KTS MPH feet Rate Location/Type
Tue 06:18:45 PM 35.5306 -106.2556 231° Southwest 189 217 9,900  Level Albuquerque Center
Tue 06:19:48 PM 35.5097 -106.3150 247° West 188 216 11,100 1,145 Climbing Albuquerque Center
Tue 06:20:35 PM 35.4889 -106.3694 245° Southwest 196 226 12,000 1,157 Climbing Albuquerque Center
Tue 06:21:11 PM 35.4742 -106.4072 244° Southwest 198 228 12,700 947 Climbing Albuquerque Center
Tue 06:21:51 PM 35.4636 -106.4392 248° West 200 230 13,200 882 Climbing Albuquerque Center
Tue 06:22:53 PM 35.4400 -106.5042 246° West 206 237 14,200 1,065 Climbing Albuquerque Center
Tue 06:23:55 PM 35.4111 -106.5847 246° West 214 246 15,400 1,024 Climbing Albuquerque Center
Tue 06:24:00 PM 35.3722 -106.3918 231° Southwest  Level FlightAware Approximate
Tue 06:24:56 PM 35.3853 -106.6508 244° Southwest 216 249 16,300  Level Albuquerque Center
Tue 06:25:58 PM 35.3611 -106.7178 246° West 216 249 17,100 677 Climbing Albuquerque Center
Tue 06:27:00 PM 35.3361 -106.7864 246° West 221 254 17,700 435 Climbing Albuquerque Center
Tue 06:28:02 PM 35.3094 -106.8572 245° Southwest 231 266 18,000 145 Climbing Albuquerque Center
Tue 06:29:04 PM 35.2811 -106.9344 246° West 249 287 18,000 49 Level Albuquerque Center
Tue 06:30:05 PM 35.2464 -107.0275 245° Southwest 254 292 18,100  Climbing Albuquerque Center
Tue 06:31:07 PM 35.2161 -107.1044 244° Southwest 253 291 18,000 -48 Descending Albuquerque Center
Tue 06:32:09 PM 35.1875 -107.1833 246° West 254 292 18,000 49 Level Albuquerque Center
Tue 06:33:10 PM 35.1578 -107.2600 245° Southwest 252 290 18,100  Climbing Albuquerque Center
Tue 06:34:12 PM 35.1253 -107.3467 245° Southwest 252 290 18,000 -48 Descending Albuquerque Center
Tue 06:35:14 PM 35.0992 -107.4153 245° Southwest 252 290 18,000 48 Level Albuquerque Center
Tue 06:36:16 PM 35.0631 -107.5086 245° Southwest 252 290 18,100  Climbing Albuquerque Center
Tue 06:37:17 PM 35.0336 -107.5864 245° Southwest 253 291 18,000 -49 Descending Albuquerque Center
Tue 06:38:19 PM 35.0097 -107.6672 250° West 256 295 18,000  Level Albuquerque Center
Tue 06:39:21 PM 34.9931 -107.7508 256° West 255 293 18,000  Level Albuquerque Center
Tue 06:40:22 PM 34.9775 -107.8361 257° West 258 297 18,000  Level Albuquerque Center
Tue 06:41:24 PM 34.9597 -107.9203 256° West 258 297 18,000  Level Albuquerque Center
Tue 06:42:26 PM 34.9339 -108.0006 249° West 255 293 18,000  Level Albuquerque Center
Tue 06:43:27 PM 34.8992 -108.0928 245° Southwest 250 288 18,000  Level Albuquerque Center
Tue 06:44:29 PM 34.8631 -108.1669 239° Southwest 243 280 18,000 290 Level Albuquerque Center
Tue 06:45:31 PM 34.8333 -108.2367 243° Southwest 241 277 18,600 683 Climbing Albuquerque Center
Tue 06:46:32 PM 34.8044 -108.2992 241° Southwest 230 265 19,400 683 Climbing Albuquerque Center
Tue 06:47:34 PM 34.7725 -108.3722 242° Southwest 222 255 20,000 293 Climbing Albuquerque Center
Tue 06:48:35 PM 34.7425 -108.4383 241° Southwest 228 262 20,000 49 Level Albuquerque Center
Tue 06:49:37 PM 34.7125 -108.5244 247° West 243 280 20,100  Climbing Albuquerque Center
Tue 06:50:38 PM 34.7067 -108.6125 265° West 269 310 20,000 -49 Descending Albuquerque Center
Tue 06:51:40 PM 34.6950 -108.6956 260° West 265 305 20,000 49 Level Albuquerque Center
Tue 06:52:41 PM 34.6711 -108.7869 252° West 257 296 20,100 49 Climbing Albuquerque Center
Tue 06:53:43 PM 34.6539 -108.8658 255° West 253 291 20,100 -49 Level Albuquerque Center
Tue 06:54:44 PM 34.6331 -108.9567 254° West 251 289 20,000  Descending Albuquerque Center
Tue 06:55:46 PM 34.6158 -109.0344 255° West 251 289 20,100  Climbing Albuquerque Center
Tue 06:56:47 PM 34.5986 -109.1111 255° West 248 285 20,000 -49 Descending Albuquerque Center
Tue 06:57:49 PM 34.5775 -109.2025 254° West 249 287 20,000  Level Albuquerque Center
Tue 06:58:51 PM 34.5592 -109.2806 254° West 250 288 20,000  Level Albuquerque Center
Tue 06:59:52 PM 34.5389 -109.3708 255° West 249 287 20,000 49 Level Albuquerque Center
Tue 07:00:54 PM 34.5206 -109.4481 254° West 249 287 20,100  Climbing Albuquerque Center
Tue 07:01:55 PM 34.5033 -109.5239 255° West 246 283 20,000  Descending Albuquerque Center
Tue 07:02:57 PM 34.4819 -109.6153 254° West 250 288 20,100  Climbing Albuquerque Center
Tue 07:03:58 PM 34.4633 -109.6928 254° West 250 288 20,000 -49 Descending Albuquerque Center
Tue 07:05:00 PM 34.4344 -109.7778 248° West 246 283 20,000  Level Albuquerque Center
Tue 07:06:01 PM 34.4097 -109.8522 248° West 247 284 20,000  Level Albuquerque Center
Tue 07:07:03 PM 34.3853 -109.9269 248° West 249 287 20,000  Level Albuquerque Center
Tue 07:08:04 PM 34.3544 -110.0153 247° West 253 291 20,000  Level Albuquerque Center
Tue 07:09:06 PM 34.3294 -110.0917 248° West 253 291 20,000  Level Albuquerque Center
Tue 07:10:07 PM 34.3000 -110.1825 249° West 258 297 20,000  Level Albuquerque Center
Tue 07:11:08 PM 34.2744 -110.2575 248° West 255 293 20,000 -390 Level Albuquerque Center
Tue 07:12:10 PM 34.2494 -110.3311 248° West 256 295 19,200 -780 Descending Albuquerque Center
Tue 07:13:11 PM 34.2222 -110.4122 248° West 260 299 18,400 -927 Descending Albuquerque Center
Tue 07:14:13 PM 34.1883 -110.5069 247° West 257 296 17,300 -878 Descending Albuquerque Center
Tue 07:15:14 PM 34.1636 -110.5806 248° West 243 280 16,600 -732 Descending Albuquerque Center
Tue 07:16:16 PM 34.1381 -110.6550 247° West 241 277 15,800 -683 Descending Albuquerque Center
Tue 07:17:17 PM 34.1117 -110.7339 248° West 244 281 15,200 -541 Descending Albuquerque Center
Tue 07:18:18 PM 34.0856 -110.8106 248° West 247 284 14,700 -537 Descending Albuquerque Center
Tue 07:19:20 PM 34.0592 -110.8861 247° West 246 283 14,100 -585 Descending Albuquerque Center
Tue 07:20:21 PM 34.0336 -110.9614 248° West 244 281 13,500 -585 Descending Albuquerque Center
Tue 07:21:23 PM 34.0089 -111.0347 248° West 239 275 12,900 -585 Descending Albuquerque Center
Tue 07:22:24 PM 33.9933 -111.1156 257° West 244 281 12,300 -639 Descending Albuquerque Center
Tue 07:23:25 PM 33.9672 -111.2058 251° West 239 275 11,600 -634 Descending Albuquerque Center
Tue 07:24:27 PM 33.9358 -111.2750 241° Southwest 236 272 11,000 -244 Descending Albuquerque Center
Tue 07:25:28 PM 33.9053 -111.3467 243° Southwest 240 276 11,100 49 Climbing Albuquerque Center
Tue 07:26:30 PM 33.8714 -111.4214 241° Southwest 252 290 11,100 -390 Level Albuquerque Center
Tue 07:27:31 PM 33.8192 -111.4764 221° Southwest 247 284 10,300 -885 Descending Albuquerque Center
Tue 07:28:32 PM 33.7706 -111.5308 223° Southwest 239 275 9,300 -976 Descending Albuquerque Center
Tue 07:29:34 PM 33.7239 -111.5814 222° Southwest 227 261 8,300 -634 Descending Albuquerque Center
Tue 07:30:35 PM 33.6661 -111.6231 211° Southwest 239 275 8,000 -439 Descending Albuquerque Center
Tue 07:31:37 PM 33.6100 -111.6664 213° Southwest 240 276 7,400 -780 Descending Albuquerque Center
Tue 07:32:38 PM 33.5556 -111.7067 212° Southwest 230 265 6,400 -976 Descending Albuquerque Center
Tue 07:33:40 PM 33.5031 -111.7453 212° Southwest 222 255 5,400 -927 Descending Albuquerque Center
Tue 07:34:41 PM 33.4589 -111.8106 231° Southwest 222 255 4,500 -934 Descending Albuquerque Center
Tue 07:35:42 PM 33.4439 -111.8758 255° West 212 244 3,500 -878 Descending Albuquerque Center
Tue 07:36:44 PM 33.4403 -111.9425 266° West 200 230 2,700 -1,161 Descending Albuquerque Center
Tue 07:37:15 PM 33.4333 -111.9667 251° West 150 173 1,700 -1,935 Descending Phoenix TRACON
Tue 07:39:00 PM 33.4333 -112.0000 270° West  Level FlightAware Approximate
Tue 07:46:00 PM 33.4343 -112.0116 270° West  Level Estimated

Login

Don't have an account? Register now (free) for customized features, flight alerts, and more!